This is the latest recevied weather packets stored in our database for station/object NF3Q. If no packets are shown the sender has not sent any weather packets the latest 10 day(s).
| Time | Temp. | Humidity | Pressure | Rain* | Wind** | Luminosity | Snow |
|---|---|---|---|---|---|---|---|
| 1777376412 | 12.22° C | 84% | 1013.7 hPa | 0.25 mm | - | - | - |
| 1777375209 | 12.22° C | 83% | 1013.4 hPa | 0.25 mm | - | - | - |
| 1777372808 | 12.78° C | 78% | 1014.2 hPa | 0.51 mm | - | - | - |
| 1777370104 | 14.44° C | 69% | 1014.9 hPa | 0 mm | - | - | - |
| 1777369804 | 15° C | 68% | 1015 hPa | 0 mm | - | - | - |
| 1777366836 | 16.11° C | 56% | 1014.8 hPa | 0 mm | - | - | - |
| 1777366514 | 16.11° C | 56% | 1014.8 hPa | 0 mm | - | - | - |
| 1777365916 | 16.11° C | 55% | 1014.6 hPa | 0 mm | - | - | - |
| 1777365604 | 16.11° C | 55% | 1014.6 hPa | 0 mm | - | - | - |
| 1777362909 | 16.11° C | 53% | 1014.1 hPa | 0 mm | - | - | - |
| 1777362310 | 16.11° C | 53% | 1014.3 hPa | 0 mm | - | - | - |
| 1777362006 | 16.11° C | 53% | 1014.3 hPa | 0 mm | - | - | - |
| 1777359907 | 16.11° C | 52% | 1015.1 hPa | 0 mm | - | - | - |
| 1777359604 | 16.11° C | 52% | 1015.1 hPa | 0 mm | - | - | - |
| 1777356920 | 16.67° C | 51% | 1015.1 hPa | 0 mm | - | - | - |
| 1777356028 | 16.67° C | 51% | 1015.1 hPa | 0 mm | - | - | - |
| 1777353005 | 16.67° C | 52% | 1015.3 hPa | 0 mm | - | - | - |
| 1777350904 | 16.67° C | 52% | 1015.2 hPa | 0 mm | - | - | - |
| 1777350007 | 16.67° C | 52% | 1015.3 hPa | 0 mm | - | - | - |
| 1777347613 | 16.67° C | 51% | 1016 hPa | 0 mm | - | - | - |
| 1777346704 | 16.67° C | 51% | 1016 hPa | 0 mm | - | - | - |
| 1777342804 | 17.78° C | 47% | 1016.7 hPa | 0 mm | - | - | - |
| 1777340723 | 18.33° C | 44% | 1017.2 hPa | 0 mm | - | - | - |
| 1777339209 | 18.89° C | - | 1017.5 hPa | 0 mm | - | - | - |
| 1777338016 | 19.44° C | 41% | 1017.7 hPa | 0 mm | - | - | - |
* Rain latest hour (hover to see other rain measurements)
** Current wind speed in m/s (hover to see current wind gust speed)